sensor_id;sensor_type;location;lat;lon;timestamp;pressure;altitude;pressure_sealevel;temperature
70389;BMP280;58659;49.050;8.530;2023-03-04T00:02:05;100484.28;;;-1.04
70389;BMP280;58659;49.050;8.530;2023-03-04T00:04:30;100491.22;;;-1.00
70389;BMP280;58659;49.050;8.530;2023-03-04T00:06:55;100486.59;;;-1.08
70389;BMP280;58659;49.050;8.530;2023-03-04T00:09:21;100484.78;;;-1.07
70389;BMP280;58659;49.050;8.530;2023-03-04T00:11:46;100477.81;;;-1.12
70389;BMP280;58659;49.050;8.530;2023-03-04T00:14:11;100470.91;;;-1.11
70389;BMP280;58659;49.050;8.530;2023-03-04T00:16:37;100460.16;;;-1.08
70389;BMP280;58659;49.050;8.530;2023-03-04T00:19:03;100470.91;;;-1.11
70389;BMP280;58659;49.050;8.530;2023-03-04T00:21:29;100487.28;;;-1.17
70389;BMP280;58659;49.050;8.530;2023-03-04T00:23:55;100494.41;;;-1.25
70389;BMP280;58659;49.050;8.530;2023-03-04T00:26:20;100494.13;;;-1.33
70389;BMP280;58659;49.050;8.530;2023-03-04T00:28:45;100495.84;;;-1.39
70389;BMP280;58659;49.050;8.530;2023-03-04T00:31:11;100465.38;;;-1.35
70389;BMP280;58659;49.050;8.530;2023-03-04T00:33:36;100449.53;;;-1.32
70389;BMP280;58659;49.050;8.530;2023-03-04T00:36:03;100434.69;;;-1.25
70389;BMP280;58659;49.050;8.530;2023-03-04T00:38:29;100445.75;;;-1.19
70389;BMP280;58659;49.050;8.530;2023-03-04T00:40:54;100449.34;;;-1.20
70389;BMP280;58659;49.050;8.530;2023-03-04T00:43:20;100427.84;;;-1.09
70389;BMP280;58659;49.050;8.530;2023-03-04T00:45:45;100431.69;;;-1.07
70389;BMP280;58659;49.050;8.530;2023-03-04T00:48:11;100429.09;;;-1.17
70389;BMP280;58659;49.050;8.530;2023-03-04T00:50:36;100447.06;;;-1.07
70389;BMP280;58659;49.050;8.530;2023-03-04T00:53:02;100450.63;;;-1.13
70389;BMP280;58659;49.050;8.530;2023-03-04T00:55:27;100463.19;;;-1.16
70389;BMP280;58659;49.050;8.530;2023-03-04T00:57:53;100460.09;;;-1.18
70389;BMP280;58659;49.050;8.530;2023-03-04T01:00:18;100463.72;;;-1.19
70389;BMP280;58659;49.050;8.530;2023-03-04T01:02:44;100436.31;;;-1.14
70389;BMP280;58659;49.050;8.530;2023-03-04T01:05:10;100434.53;;;-1.08
70389;BMP280;58659;49.050;8.530;2023-03-04T01:07:35;100423.25;;;-1.07
70389;BMP280;58659;49.050;8.530;2023-03-04T01:10:01;100440.66;;;-1.14
70389;BMP280;58659;49.050;8.530;2023-03-04T01:12:26;100437.81;;;-1.13
70389;BMP280;58659;49.050;8.530;2023-03-04T01:14:52;100439.66;;;-1.08
70389;BMP280;58659;49.050;8.530;2023-03-04T01:17:18;100430.66;;;-1.11
70389;BMP280;58659;49.050;8.530;2023-03-04T01:19:43;100428.31;;;-1.17
70389;BMP280;58659;49.050;8.530;2023-03-04T01:22:10;100436.00;;;-1.17
70389;BMP280;58659;49.050;8.530;2023-03-04T01:24:36;100428.63;;;-1.09
70389;BMP280;58659;49.050;8.530;2023-03-04T01:27:01;100405.75;;;-1.20
70389;BMP280;58659;49.050;8.530;2023-03-04T01:29:27;100411.44;;;-1.13
70389;BMP280;58659;49.050;8.530;2023-03-04T01:31:52;100419.84;;;-1.23
70389;BMP280;58659;49.050;8.530;2023-03-04T01:34:17;100402.63;;;-1.33
70389;BMP280;58659;49.050;8.530;2023-03-04T01:36:43;100424.69;;;-1.27
70389;BMP280;58659;49.050;8.530;2023-03-04T01:39:08;100420.25;;;-1.36
70389;BMP280;58659;49.050;8.530;2023-03-04T01:41:33;100421.00;;;-1.41
70389;BMP280;58659;49.050;8.530;2023-03-04T01:44:00;100405.34;;;-1.44
70389;BMP280;58659;49.050;8.530;2023-03-04T01:46:26;100414.28;;;-1.52
70389;BMP280;58659;49.050;8.530;2023-03-04T01:48:52;100414.81;;;-1.50
70389;BMP280;58659;49.050;8.530;2023-03-04T01:51:19;100404.50;;;-1.55
70389;BMP280;58659;49.050;8.530;2023-03-04T01:53:45;100401.69;;;-1.53
70389;BMP280;58659;49.050;8.530;2023-03-04T01:56:19;100381.44;;;-1.55
70389;BMP280;58659;49.050;8.530;2023-03-04T01:59:06;100367.81;;;-1.66
70389;BMP280;58659;49.050;8.530;2023-03-04T02:01:31;100382.69;;;-1.68
70389;BMP280;58659;49.050;8.530;2023-03-04T02:03:57;100379.81;;;-1.76
70389;BMP280;58659;49.050;8.530;2023-03-04T02:06:22;100370.06;;;-1.79
70389;BMP280;58659;49.050;8.530;2023-03-04T02:08:47;100347.00;;;-1.79
70389;BMP280;58659;49.050;8.530;2023-03-04T02:11:13;100338.28;;;-1.78
70389;BMP280;58659;49.050;8.530;2023-03-04T02:13:38;100333.41;;;-1.85
70389;BMP280;58659;49.050;8.530;2023-03-04T02:16:03;100326.47;;;-1.84
70389;BMP280;58659;49.050;8.530;2023-03-04T02:18:29;100326.94;;;-1.92
70389;BMP280;58659;49.050;8.530;2023-03-04T02:21:09;100324.88;;;-1.90
70389;BMP280;58659;49.050;8.530;2023-03-04T02:28:33;100323.84;;;-1.94
70389;BMP280;58659;49.050;8.530;2023-03-04T02:30:59;100328.47;;;-1.91
70389;BMP280;58659;49.050;8.530;2023-03-04T02:33:24;100332.78;;;-1.97
70389;BMP280;58659;49.050;8.530;2023-03-04T02:35:49;100339.66;;;-2.03
70389;BMP280;58659;49.050;8.530;2023-03-04T02:38:16;100350.84;;;-2.14
70389;BMP280;58659;49.050;8.530;2023-03-04T02:40:45;100359.00;;;-2.22
70389;BMP280;58659;49.050;8.530;2023-03-04T02:43:12;100365.59;;;-2.26
70389;BMP280;58659;49.050;8.530;2023-03-04T02:45:44;100378.66;;;-2.27
70389;BMP280;58659;49.050;8.530;2023-03-04T02:48:11;100375.69;;;-2.41
70389;BMP280;58659;49.050;8.530;2023-03-04T02:50:40;100379.22;;;-2.47
70389;BMP280;58659;49.050;8.530;2023-03-04T02:53:06;100364.28;;;-2.55
70389;BMP280;58659;49.050;8.530;2023-03-04T02:55:31;100380.13;;;-2.58
70389;BMP280;58659;49.050;8.530;2023-03-04T02:57:57;100361.22;;;-2.57
70389;BMP280;58659;49.050;8.530;2023-03-04T03:00:22;100360.91;;;-2.61
70389;BMP280;58659;49.050;8.530;2023-03-04T03:02:48;100370.84;;;-2.64
70389;BMP280;58659;49.050;8.530;2023-03-04T03:05:13;100359.06;;;-2.65
70389;BMP280;58659;49.050;8.530;2023-03-04T03:07:39;100362.69;;;-2.61
70389;BMP280;58659;49.050;8.530;2023-03-04T03:10:04;100366.69;;;-2.70
70389;BMP280;58659;49.050;8.530;2023-03-04T03:12:29;100364.09;;;-2.75
70389;BMP280;58659;49.050;8.530;2023-03-04T03:14:55;100382.25;;;-2.72
70389;BMP280;58659;49.050;8.530;2023-03-04T03:17:20;100375.88;;;-2.74
70389;BMP280;58659;49.050;8.530;2023-03-04T03:19:46;100366.34;;;-2.79
70389;BMP280;58659;49.050;8.530;2023-03-04T03:22:11;100360.03;;;-2.71
70389;BMP280;58659;49.050;8.530;2023-03-04T03:24:36;100361.72;;;-2.82
70389;BMP280;58659;49.050;8.530;2023-03-04T03:27:02;100354.81;;;-2.82
70389;BMP280;58659;49.050;8.530;2023-03-04T03:29:30;100332.03;;;-2.83
70389;BMP280;58659;49.050;8.530;2023-03-04T03:31:55;100318.03;;;-2.81
70389;BMP280;58659;49.050;8.530;2023-03-04T03:37:53;100336.09;;;-2.87
70389;BMP280;58659;49.050;8.530;2023-03-04T03:40:19;100342.00;;;-2.87
70389;BMP280;58659;49.050;8.530;2023-03-04T03:42:44;100338.63;;;-2.92
70389;BMP280;58659;49.050;8.530;2023-03-04T03:45:10;100350.66;;;-2.88
70389;BMP280;58659;49.050;8.530;2023-03-04T03:47:35;100345.72;;;-2.94
70389;BMP280;58659;49.050;8.530;2023-03-04T03:50:00;100337.84;;;-2.93
70389;BMP280;58659;49.050;8.530;2023-03-04T03:52:26;100350.34;;;-2.91
70389;BMP280;58659;49.050;8.530;2023-03-04T03:54:51;100358.69;;;-3.01
70389;BMP280;58659;49.050;8.530;2023-03-04T03:57:16;100353.69;;;-3.12
70389;BMP280;58659;49.050;8.530;2023-03-04T03:59:42;100357.25;;;-3.13
70389;BMP280;58659;49.050;8.530;2023-03-04T04:02:07;100370.91;;;-3.25
70389;BMP280;58659;49.050;8.530;2023-03-04T04:04:32;100352.72;;;-3.28
70389;BMP280;58659;49.050;8.530;2023-03-04T04:06:58;100338.47;;;-3.24
70389;BMP280;58659;49.050;8.530;2023-03-04T04:09:23;100347.81;;;-3.13
70389;BMP280;58659;49.050;8.530;2023-03-04T04:11:48;100356.66;;;-3.21
70389;BMP280;58659;49.050;8.530;2023-03-04T04:14:14;100363.19;;;-3.30
70389;BMP280;58659;49.050;8.530;2023-03-04T04:16:40;100350.47;;;-3.25
70389;BMP280;58659;49.050;8.530;2023-03-04T04:19:05;100322.44;;;-3.20
70389;BMP280;58659;49.050;8.530;2023-03-04T04:21:30;100347.25;;;-3.15
70389;BMP280;58659;49.050;8.530;2023-03-04T04:23:56;100332.13;;;-3.22
70389;BMP280;58659;49.050;8.530;2023-03-04T04:26:21;100315.59;;;-3.14
70389;BMP280;58659;49.050;8.530;2023-03-04T04:28:47;100297.47;;;-3.12
70389;BMP280;58659;49.050;8.530;2023-03-04T04:31:12;100302.88;;;-3.09
70389;BMP280;58659;49.050;8.530;2023-03-04T04:33:37;100305.09;;;-3.17
70389;BMP280;58659;49.050;8.530;2023-03-04T04:36:03;100313.00;;;-3.19
70389;BMP280;58659;49.050;8.530;2023-03-04T04:38:29;100324.91;;;-3.25
70389;BMP280;58659;49.050;8.530;2023-03-04T04:40:56;100331.50;;;-3.29
70389;BMP280;58659;49.050;8.530;2023-03-04T04:43:22;100332.34;;;-3.23
70389;BMP280;58659;49.050;8.530;2023-03-04T04:45:47;100320.56;;;-3.24
70389;BMP280;58659;49.050;8.530;2023-03-04T04:48:13;100340.38;;;-3.14
70389;BMP280;58659;49.050;8.530;2023-03-04T04:50:38;100337.00;;;-3.20
70389;BMP280;58659;49.050;8.530;2023-03-04T04:53:03;100332.66;;;-3.20
70389;BMP280;58659;49.050;8.530;2023-03-04T04:55:29;100324.25;;;-3.15
70389;BMP280;58659;49.050;8.530;2023-03-04T04:57:54;100340.91;;;-3.12
70389;BMP280;58659;49.050;8.530;2023-03-04T05:00:19;100346.06;;;-3.29
70389;BMP280;58659;49.050;8.530;2023-03-04T05:02:45;100346.28;;;-3.31
70389;BMP280;58659;49.050;8.530;2023-03-04T05:05:10;100334.06;;;-3.29
70389;BMP280;58659;49.050;8.530;2023-03-04T05:07:36;100328.25;;;-3.24
70389;BMP280;58659;49.050;8.530;2023-03-04T05:10:02;100329.56;;;-3.22
70389;BMP280;58659;49.050;8.530;2023-03-04T05:12:28;100336.03;;;-3.14
70389;BMP280;58659;49.050;8.530;2023-03-04T05:14:53;100334.13;;;-3.24
70389;BMP280;58659;49.050;8.530;2023-03-04T05:17:18;100337.75;;;-3.20
70389;BMP280;58659;49.050;8.530;2023-03-04T05:19:44;100338.06;;;-3.16
70389;BMP280;58659;49.050;8.530;2023-03-04T05:22:09;100320.56;;;-3.24
70389;BMP280;58659;49.050;8.530;2023-03-04T05:24:34;100318.09;;;-3.19
70389;BMP280;58659;49.050;8.530;2023-03-04T05:27:00;100325.63;;;-3.29
70389;BMP280;58659;49.050;8.530;2023-03-04T05:29:26;100327.41;;;-3.30
70389;BMP280;58659;49.050;8.530;2023-03-04T05:31:51;100323.84;;;-3.29
70389;BMP280;58659;49.050;8.530;2023-03-04T05:34:17;100326.81;;;-3.15
70389;BMP280;58659;49.050;8.530;2023-03-04T05:36:42;100330.69;;;-3.12
70389;BMP280;58659;49.050;8.530;2023-03-04T05:39:07;100344.75;;;-3.32
70389;BMP280;58659;49.050;8.530;2023-03-04T05:41:33;100352.06;;;-3.40
70389;BMP280;58659;49.050;8.530;2023-03-04T05:43:58;100369.78;;;-3.50
70389;BMP280;58659;49.050;8.530;2023-03-04T05:46:23;100378.84;;;-3.60
70389;BMP280;58659;49.050;8.530;2023-03-04T05:48:50;100381.41;;;-3.60
70389;BMP280;58659;49.050;8.530;2023-03-04T05:51:17;100379.56;;;-3.64
70389;BMP280;58659;49.050;8.530;2023-03-04T05:53:42;100369.09;;;-3.63
70389;BMP280;58659;49.050;8.530;2023-03-04T05:56:09;100366.38;;;-3.56
70389;BMP280;58659;49.050;8.530;2023-03-04T05:58:35;100370.19;;;-3.59
70389;BMP280;58659;49.050;8.530;2023-03-04T06:01:01;100362.00;;;-3.61
70389;BMP280;58659;49.050;8.530;2023-03-04T06:03:27;100381.94;;;-3.58
70389;BMP280;58659;49.050;8.530;2023-03-04T06:05:52;100383.66;;;-3.63
70389;BMP280;58659;49.050;8.530;2023-03-04T06:08:18;100385.19;;;-3.79
70389;BMP280;58659;49.050;8.530;2023-03-04T06:10:43;100397.72;;;-3.77
70389;BMP280;58659;49.050;8.530;2023-03-04T06:13:09;100393.06;;;-3.80
70389;BMP280;58659;49.050;8.530;2023-03-04T06:15:34;100395.50;;;-3.90
70389;BMP280;58659;49.050;8.530;2023-03-04T06:18:00;100396.34;;;-3.85
70389;BMP280;58659;49.050;8.530;2023-03-04T06:20:25;100388.59;;;-3.90
70389;BMP280;58659;49.050;8.530;2023-03-04T06:22:51;100399.81;;;-3.74
70389;BMP280;58659;49.050;8.530;2023-03-04T06:25:16;100402.13;;;-3.73
70389;BMP280;58659;49.050;8.530;2023-03-04T06:27:42;100404.78;;;-3.68
70389;BMP280;58659;49.050;8.530;2023-03-04T06:30:08;100397.88;;;-3.50
70389;BMP280;58659;49.050;8.530;2023-03-04T06:32:33;100405.50;;;-3.34
70389;BMP280;58659;49.050;8.530;2023-03-04T06:34:59;100384.00;;;-3.21
70389;BMP280;58659;49.050;8.530;2023-03-04T06:37:24;100398.56;;;-3.00
70389;BMP280;58659;49.050;8.530;2023-03-04T06:39:49;100382.91;;;-2.87
70389;BMP280;58659;49.050;8.530;2023-03-04T06:42:15;100391.00;;;-2.68
70389;BMP280;58659;49.050;8.530;2023-03-04T06:44:40;100390.75;;;-2.66
70389;BMP280;58659;49.050;8.530;2023-03-04T06:47:06;100393.63;;;-2.36
70389;BMP280;58659;49.050;8.530;2023-03-04T06:49:31;100387.38;;;-2.23
70389;BMP280;58659;49.050;8.530;2023-03-04T06:51:57;100401.81;;;-2.07
70389;BMP280;58659;49.050;8.530;2023-03-04T06:54:22;100409.91;;;-1.88
70389;BMP280;58659;49.050;8.530;2023-03-04T06:56:47;100427.94;;;-1.78
70389;BMP280;58659;49.050;8.530;2023-03-04T06:59:13;100438.25;;;-1.73
70389;BMP280;58659;49.050;8.530;2023-03-04T07:01:38;100446.50;;;-1.61
70389;BMP280;58659;49.050;8.530;2023-03-04T07:04:06;100447.91;;;-1.43
70389;BMP280;58659;49.050;8.530;2023-03-04T07:06:32;100460.28;;;-1.30
70389;BMP280;58659;49.050;8.530;2023-03-04T07:08:57;100473.41;;;-1.27
70389;BMP280;58659;49.050;8.530;2023-03-04T07:11:24;100468.53;;;-1.23
70389;BMP280;58659;49.050;8.530;2023-03-04T07:13:50;100464.59;;;-0.89
70389;BMP280;58659;49.050;8.530;2023-03-04T07:16:18;100450.53;;;-0.71
70389;BMP280;58659;49.050;8.530;2023-03-04T07:18:45;100460.09;;;-0.61
70389;BMP280;58659;49.050;8.530;2023-03-04T07:21:11;100456.03;;;-0.42
70389;BMP280;58659;49.050;8.530;2023-03-04T07:23:37;100477.34;;;-0.36
70389;BMP280;58659;49.050;8.530;2023-03-04T07:26:03;100486.66;;;-0.25
70389;BMP280;58659;49.050;8.530;2023-03-04T07:28:28;100495.38;;;-0.21
70389;BMP280;58659;49.050;8.530;2023-03-04T07:30:55;100500.50;;;-0.16
70389;BMP280;58659;49.050;8.530;2023-03-04T07:33:20;100497.22;;;-0.07
70389;BMP280;58659;49.050;8.530;2023-03-04T07:35:46;100522.66;;;0.00
70389;BMP280;58659;49.050;8.530;2023-03-04T07:38:11;100536.50;;;-0.01
70389;BMP280;58659;49.050;8.530;2023-03-04T07:40:37;100560.13;;;0.01
70389;BMP280;58659;49.050;8.530;2023-03-04T07:43:03;100565.28;;;0.06
70389;BMP280;58659;49.050;8.530;2023-03-04T07:45:29;100565.53;;;-0.01
70389;BMP280;58659;49.050;8.530;2023-03-04T07:47:56;100552.94;;;-0.07
70389;BMP280;58659;49.050;8.530;2023-03-04T07:50:22;100553.47;;;0.05
70389;BMP280;58659;49.050;8.530;2023-03-04T07:52:48;100560.66;;;-0.07
70389;BMP280;58659;49.050;8.530;2023-03-04T07:55:16;100568.09;;;-0.01
70389;BMP280;58659;49.050;8.530;2023-03-04T07:57:43;100575.03;;;0.04
70389;BMP280;58659;49.050;8.530;2023-03-04T08:00:12;100575.06;;;0.19
70389;BMP280;58659;49.050;8.530;2023-03-04T08:02:38;100583.56;;;0.30
70389;BMP280;58659;49.050;8.530;2023-03-04T08:05:04;100588.94;;;0.43
70389;BMP280;58659;49.050;8.530;2023-03-04T08:07:29;100585.88;;;0.62
70389;BMP280;58659;49.050;8.530;2023-03-04T08:09:54;100585.59;;;0.73
70389;BMP280;58659;49.050;8.530;2023-03-04T08:12:20;100600.53;;;0.81
70389;BMP280;58659;49.050;8.530;2023-03-04T08:14:45;100599.72;;;0.96
70389;BMP280;58659;49.050;8.530;2023-03-04T08:17:11;100612.59;;;0.91
70389;BMP280;58659;49.050;8.530;2023-03-04T08:19:39;100625.19;;;0.98
70389;BMP280;58659;49.050;8.530;2023-03-04T08:22:04;100625.19;;;1.08
70389;BMP280;58659;49.050;8.530;2023-03-04T08:24:30;100602.78;;;1.13
70389;BMP280;58659;49.050;8.530;2023-03-04T08:26:55;100612.03;;;1.30
70389;BMP280;58659;49.050;8.530;2023-03-04T08:29:22;100609.91;;;1.42
70389;BMP280;58659;49.050;8.530;2023-03-04T08:31:48;100619.41;;;1.51
70389;BMP280;58659;49.050;8.530;2023-03-04T08:34:15;100627.91;;;1.52
70389;BMP280;58659;49.050;8.530;2023-03-04T08:36:41;100622.25;;;1.50
70389;BMP280;58659;49.050;8.530;2023-03-04T08:39:11;100633.50;;;1.69
70389;BMP280;58659;49.050;8.530;2023-03-04T08:41:39;100627.28;;;1.80
70389;BMP280;58659;49.050;8.530;2023-03-04T08:44:05;100624.34;;;2.02
70389;BMP280;58659;49.050;8.530;2023-03-04T08:46:33;100632.19;;;2.21
70389;BMP280;58659;49.050;8.530;2023-03-04T08:48:59;100629.50;;;2.41
70389;BMP280;58659;49.050;8.530;2023-03-04T08:51:24;100642.78;;;2.58
70389;BMP280;58659;49.050;8.530;2023-03-04T08:53:50;100648.19;;;2.62
70389;BMP280;58659;49.050;8.530;2023-03-04T08:56:16;100643.09;;;2.80
70389;BMP280;58659;49.050;8.530;2023-03-04T08:58:42;100651.94;;;2.98
70389;BMP280;58659;49.050;8.530;2023-03-04T09:01:09;100660.56;;;3.17
70389;BMP280;58659;49.050;8.530;2023-03-04T09:03:34;100654.72;;;3.30
70389;BMP280;58659;49.050;8.530;2023-03-04T09:06:01;100665.19;;;3.44
70389;BMP280;58659;49.050;8.530;2023-03-04T09:08:27;100682.56;;;3.62
70389;BMP280;58659;49.050;8.530;2023-03-04T09:10:53;100679.44;;;3.84
70389;BMP280;58659;49.050;8.530;2023-03-04T09:13:19;100682.47;;;4.10
70389;BMP280;58659;49.050;8.530;2023-03-04T09:15:47;100684.75;;;4.11
70389;BMP280;58659;49.050;8.530;2023-03-04T09:18:17;100680.41;;;4.25
70389;BMP280;58659;49.050;8.530;2023-03-04T09:20:43;100693.50;;;4.34
70389;BMP280;58659;49.050;8.530;2023-03-04T09:23:09;100691.28;;;4.41
70389;BMP280;58659;49.050;8.530;2023-03-04T09:25:35;100703.06;;;4.34
70389;BMP280;58659;49.050;8.530;2023-03-04T09:28:01;100711.00;;;4.37
70389;BMP280;58659;49.050;8.530;2023-03-04T09:30:26;100696.69;;;4.45
70389;BMP280;58659;49.050;8.530;2023-03-04T09:32:51;100693.03;;;4.64
70389;BMP280;58659;49.050;8.530;2023-03-04T09:35:17;100706.13;;;4.36
70389;BMP280;58659;49.050;8.530;2023-03-04T09:37:42;100698.44;;;4.82
70389;BMP280;58659;49.050;8.530;2023-03-04T09:40:17;100703.44;;;5.19
70389;BMP280;58659;49.050;8.530;2023-03-04T09:43:02;100723.50;;;5.54
70389;BMP280;58659;49.050;8.530;2023-03-04T09:45:42;100714.78;;;5.50
70389;BMP280;58659;49.050;8.530;2023-03-04T09:48:15;100719.09;;;5.41
70389;BMP280;58659;49.050;8.530;2023-03-04T09:50:51;100717.47;;;5.59
70389;BMP280;58659;49.050;8.530;2023-03-04T09:53:27;100738.38;;;5.62
70389;BMP280;58659;49.050;8.530;2023-03-04T09:55:54;100736.81;;;5.75
70389;BMP280;58659;49.050;8.530;2023-03-04T10:03:39;100740.97;;;5.62
70389;BMP280;58659;49.050;8.530;2023-03-04T10:06:10;100734.91;;;5.26
70389;BMP280;58659;49.050;8.530;2023-03-04T10:11:50;100736.34;;;5.05
70389;BMP280;58659;49.050;8.530;2023-03-04T10:14:34;100746.41;;;5.06
70389;BMP280;58659;49.050;8.530;2023-03-04T10:19:51;100740.94;;;4.62
70389;BMP280;58659;49.050;8.530;2023-03-04T10:22:31;100737.19;;;4.87
70389;BMP280;58659;49.050;8.530;2023-03-04T10:25:13;100733.53;;;4.88
70389;BMP280;58659;49.050;8.530;2023-03-04T10:27:39;100731.19;;;4.72
70389;BMP280;58659;49.050;8.530;2023-03-04T10:30:12;100724.31;;;4.82
70389;BMP280;58659;49.050;8.530;2023-03-04T10:32:45;100726.91;;;4.95
70389;BMP280;58659;49.050;8.530;2023-03-04T10:35:11;100732.31;;;4.99
70389;BMP280;58659;49.050;8.530;2023-03-04T10:37:45;100733.34;;;4.98
70389;BMP280;58659;49.050;8.530;2023-03-04T10:40:22;100738.16;;;4.91
70389;BMP280;58659;49.050;8.530;2023-03-04T10:42:49;100734.09;;;4.85
70389;BMP280;58659;49.050;8.530;2023-03-04T10:45:21;100725.44;;;4.76
70389;BMP280;58659;49.050;8.530;2023-03-04T10:47:54;100726.31;;;4.85
70389;BMP280;58659;49.050;8.530;2023-03-04T10:50:22;100728.25;;;4.93
70389;BMP280;58659;49.050;8.530;2023-03-04T10:52:48;100709.47;;;5.01
70389;BMP280;58659;49.050;8.530;2023-03-04T10:55:43;100720.59;;;5.01
70389;BMP280;58659;49.050;8.530;2023-03-04T10:58:13;100715.16;;;5.03
70389;BMP280;58659;49.050;8.530;2023-03-04T11:00:39;100718.81;;;5.15
70389;BMP280;58659;49.050;8.530;2023-03-04T11:03:50;100714.38;;;5.16
70389;BMP280;58659;49.050;8.530;2023-03-04T11:06:18;100700.56;;;5.07
70389;BMP280;58659;49.050;8.530;2023-03-04T11:08:45;100707.47;;;5.11
70389;BMP280;58659;49.050;8.530;2023-03-04T11:11:32;100706.03;;;5.19
70389;BMP280;58659;49.050;8.530;2023-03-04T11:14:10;100703.06;;;5.12
70389;BMP280;58659;49.050;8.530;2023-03-04T11:16:38;100696.75;;;5.18
70389;BMP280;58659;49.050;8.530;2023-03-04T11:19:12;100693.59;;;5.21
70389;BMP280;58659;49.050;8.530;2023-03-04T11:21:38;100700.19;;;5.27
70389;BMP280;58659;49.050;8.530;2023-03-04T11:24:13;100696.16;;;5.21
70389;BMP280;58659;49.050;8.530;2023-03-04T11:26:49;100693.38;;;5.17
70389;BMP280;58659;49.050;8.530;2023-03-04T11:32:19;100692.03;;;5.34
70389;BMP280;58659;49.050;8.530;2023-03-04T11:34:46;100685.81;;;5.21
70389;BMP280;58659;49.050;8.530;2023-03-04T11:37:30;100688.13;;;5.23
70389;BMP280;58659;49.050;8.530;2023-03-04T11:39:59;100688.09;;;5.36
70389;BMP280;58659;49.050;8.530;2023-03-04T11:42:50;100687.69;;;5.43
70389;BMP280;58659;49.050;8.530;2023-03-04T11:45:24;100686.75;;;5.52
70389;BMP280;58659;49.050;8.530;2023-03-04T11:53:22;100680.28;;;5.63
70389;BMP280;58659;49.050;8.530;2023-03-04T11:55:57;100682.22;;;5.44
70389;BMP280;58659;49.050;8.530;2023-03-04T12:00:59;100666.19;;;5.70
70389;BMP280;58659;49.050;8.530;2023-03-04T12:15:26;100651.50;;;5.65
70389;BMP280;58659;49.050;8.530;2023-03-04T12:28:54;100643.34;;;5.44
70389;BMP280;58659;49.050;8.530;2023-03-04T12:31:41;100634.16;;;5.38
70389;BMP280;58659;49.050;8.530;2023-03-04T12:37:21;100626.66;;;5.50
70389;BMP280;58659;49.050;8.530;2023-03-04T12:42:39;100611.47;;;5.57
70389;BMP280;58659;49.050;8.530;2023-03-04T12:45:38;100621.53;;;5.59
70389;BMP280;58659;49.050;8.530;2023-03-04T12:55:55;100615.38;;;5.91
70389;BMP280;58659;49.050;8.530;2023-03-04T12:58:26;100613.28;;;5.93
70389;BMP280;58659;49.050;8.530;2023-03-04T13:01:08;100606.16;;;5.98
70389;BMP280;58659;49.050;8.530;2023-03-04T13:07:15;100608.25;;;5.96
70389;BMP280;58659;49.050;8.530;2023-03-04T13:09:27;100600.06;;;6.03
70389;BMP280;58659;49.050;8.530;2023-03-04T13:11:54;100593.69;;;6.09
70389;BMP280;58659;49.050;8.530;2023-03-04T13:14:27;100601.69;;;6.21
70389;BMP280;58659;49.050;8.530;2023-03-04T13:16:55;100590.13;;;6.27
70389;BMP280;58659;49.050;8.530;2023-03-04T13:19:44;100601.56;;;6.26
70389;BMP280;58659;49.050;8.530;2023-03-04T13:35:54;100599.09;;;5.54
70389;BMP280;58659;49.050;8.530;2023-03-04T13:59:23;100579.31;;;5.81
70389;BMP280;58659;49.050;8.530;2023-03-04T14:04:32;100563.69;;;5.72
70389;BMP280;58659;49.050;8.530;2023-03-04T14:06:59;100572.03;;;5.83
70389;BMP280;58659;49.050;8.530;2023-03-04T14:09:26;100570.25;;;5.92
70389;BMP280;58659;49.050;8.530;2023-03-04T14:11:54;100564.22;;;6.05
70389;BMP280;58659;49.050;8.530;2023-03-04T14:14:27;100564.22;;;6.05
70389;BMP280;58659;49.050;8.530;2023-03-04T14:17:01;100556.81;;;5.68
70389;BMP280;58659;49.050;8.530;2023-03-04T14:19:29;100559.75;;;5.75
70389;BMP280;58659;49.050;8.530;2023-03-04T14:21:56;100555.50;;;5.79
70389;BMP280;58659;49.050;8.530;2023-03-04T14:24:23;100558.94;;;5.88
70389;BMP280;58659;49.050;8.530;2023-03-04T14:26:49;100550.09;;;5.89
70389;BMP280;58659;49.050;8.530;2023-03-04T14:29:28;100552.53;;;5.49
70389;BMP280;58659;49.050;8.530;2023-03-04T14:31:56;100537.25;;;5.39
70389;BMP280;58659;49.050;8.530;2023-03-04T14:34:33;100546.03;;;5.52
70389;BMP280;58659;49.050;8.530;2023-03-04T14:37:01;100545.44;;;5.19
70389;BMP280;58659;49.050;8.530;2023-03-04T14:39:29;100534.38;;;5.27
70389;BMP280;58659;49.050;8.530;2023-03-04T14:42:00;100541.28;;;5.32
70389;BMP280;58659;49.050;8.530;2023-03-04T14:44:40;100527.88;;;5.16
70389;BMP280;58659;49.050;8.530;2023-03-04T14:47:39;100538.28;;;5.02
70389;BMP280;58659;49.050;8.530;2023-03-04T14:50:09;100539.13;;;5.11
70389;BMP280;58659;49.050;8.530;2023-03-04T14:52:38;100540.50;;;5.31
70389;BMP280;58659;49.050;8.530;2023-03-04T14:57:38;100538.28;;;5.60
70389;BMP280;58659;49.050;8.530;2023-03-04T15:02:42;100541.25;;;5.45
70389;BMP280;58659;49.050;8.530;2023-03-04T15:07:40;100542.78;;;5.46
70389;BMP280;58659;49.050;8.530;2023-03-04T15:10:09;100531.03;;;5.49
70389;BMP280;58659;49.050;8.530;2023-03-04T15:12:36;100538.06;;;5.48
70389;BMP280;58659;49.050;8.530;2023-03-04T15:15:33;100535.09;;;5.41
70389;BMP280;58659;49.050;8.530;2023-03-04T15:18:22;100526.88;;;5.39
70389;BMP280;58659;49.050;8.530;2023-03-04T15:21:03;100525.16;;;5.35
70389;BMP280;58659;49.050;8.530;2023-03-04T15:23:31;100529.47;;;5.39
70389;BMP280;58659;49.050;8.530;2023-03-04T15:26:02;100522.69;;;5.30
70389;BMP280;58659;49.050;8.530;2023-03-04T15:28:35;100524.59;;;5.24
70389;BMP280;58659;49.050;8.530;2023-03-04T15:31:00;100519.44;;;5.10
70389;BMP280;58659;49.050;8.530;2023-03-04T15:33:26;100517.91;;;5.09
70389;BMP280;58659;49.050;8.530;2023-03-04T15:35:58;100517.75;;;5.06
70389;BMP280;58659;49.050;8.530;2023-03-04T15:38:24;100511.81;;;4.92
70389;BMP280;58659;49.050;8.530;2023-03-04T15:40:50;100514.19;;;5.02
70389;BMP280;58659;49.050;8.530;2023-03-04T15:43:17;100513.25;;;4.98
70389;BMP280;58659;49.050;8.530;2023-03-04T15:46:03;100506.06;;;4.81
70389;BMP280;58659;49.050;8.530;2023-03-04T15:48:29;100501.66;;;4.82
70389;BMP280;58659;49.050;8.530;2023-03-04T15:51:00;100512.50;;;4.84
70389;BMP280;58659;49.050;8.530;2023-03-04T15:53:50;100511.34;;;4.90
70389;BMP280;58659;49.050;8.530;2023-03-04T15:56:18;100501.66;;;4.82
70389;BMP280;58659;49.050;8.530;2023-03-04T15:59:09;100509.03;;;4.74
70389;BMP280;58659;49.050;8.530;2023-03-04T16:01:33;100513.34;;;4.65
70389;BMP280;58659;49.050;8.530;2023-03-04T16:03:58;100516.94;;;4.69